createdAt,value
2022-11-22T00:00:45.986Z,58.45
2022-11-22T00:01:46.028Z,61.26
2022-11-22T00:02:45.964Z,56.95
2022-11-22T00:03:45.963Z,56.42
2022-11-22T00:04:45.962Z,56.83
2022-11-22T00:05:45.956Z,55.71
2022-11-22T00:06:45.930Z,52.65
2022-11-22T00:07:45.969Z,55.95
2022-11-22T00:08:45.918Z,53.71
2022-11-22T00:09:45.921Z,57.02
2022-11-22T00:10:47.495Z,58.61
2022-11-22T00:11:45.895Z,56.71
2022-11-22T00:12:46.964Z,58.20
2022-11-22T00:13:53.043Z,53.99
2022-11-22T00:14:45.868Z,56.29
2022-11-22T00:15:45.865Z,60.60
2022-11-22T00:16:45.867Z,57.95
2022-11-22T00:17:45.848Z,58.88
2022-11-22T00:18:45.874Z,52.87
2022-11-22T00:19:45.829Z,50.85
2022-11-22T00:20:45.830Z,55.45
2022-11-22T00:21:46.088Z,59.97
2022-11-22T00:22:46.494Z,59.36
2022-11-22T00:23:45.803Z,56.32
2022-11-22T00:24:45.809Z,52.16
2022-11-22T00:25:45.799Z,56.98
2022-11-22T00:26:45.790Z,57.73
2022-11-22T00:29:45.698Z,57.69
2022-11-22T00:30:45.704Z,58.89
2022-11-22T00:31:45.689Z,55.91
2022-11-22T00:32:45.680Z,56.41
2022-11-22T00:33:45.678Z,59.97
2022-11-22T00:34:45.664Z,55.66
2022-11-22T00:35:45.668Z,50.90
2022-11-22T00:36:45.674Z,57.92
2022-11-22T00:37:45.643Z,57.21
2022-11-22T00:38:45.637Z,57.05
2022-11-22T00:39:46.721Z,53.34
2022-11-22T00:40:46.720Z,57.75
2022-11-22T00:41:46.708Z,57.03
2022-11-22T00:42:46.700Z,61.50
2022-11-22T00:43:46.698Z,59.81
2022-11-22T00:44:46.671Z,51.25
2022-11-22T00:45:47.708Z,54.03
2022-11-22T00:46:46.663Z,59.99
2022-11-22T00:47:46.668Z,59.24
2022-11-22T00:48:46.644Z,55.27
2022-11-22T00:49:47.572Z,50.28
2022-11-22T00:50:46.634Z,49.87
2022-11-22T00:51:46.633Z,53.80
2022-11-22T00:52:46.629Z,60.56
2022-11-22T00:53:47.147Z,55.19
2022-11-22T00:54:51.444Z,54.15
2022-11-22T00:55:48.583Z,51.47
2022-11-22T00:56:46.591Z,55.81
2022-11-22T00:57:46.586Z,51.57
2022-11-22T00:58:46.575Z,50.84
2022-11-22T00:59:46.555Z,51.23
2022-11-22T01:00:46.616Z,65.12
2022-11-22T01:01:46.589Z,64.48
2022-11-22T01:02:46.545Z,53.75
2022-11-22T01:03:47.077Z,50.47
2022-11-22T01:04:46.513Z,50.53
2022-11-22T01:05:46.515Z,52.80
2022-11-22T01:06:46.501Z,56.79
2022-11-22T01:07:48.242Z,53.63
2022-11-22T01:08:46.501Z,57.32
2022-11-22T01:09:46.471Z,63.03
2022-11-22T01:10:46.470Z,63.15
2022-11-22T01:11:46.472Z,61.69
2022-11-22T01:12:46.667Z,57.74
2022-11-22T01:13:47.464Z,53.82
2022-11-22T01:14:46.441Z,53.11
2022-11-22T01:15:46.429Z,68.85
2022-11-22T01:16:46.430Z,54.78
2022-11-22T01:17:46.418Z,66.26
2022-11-22T01:18:46.403Z,65.67
2022-11-22T01:19:46.399Z,61.31
2022-11-22T01:20:46.391Z,55.58
2022-11-22T01:21:46.386Z,55.73
2022-11-22T01:22:46.386Z,54.87
2022-11-22T01:23:46.378Z,64.13
2022-11-22T01:24:46.363Z,55.50
2022-11-22T01:25:47.342Z,52.08
2022-11-22T01:26:46.332Z,49.56
2022-11-22T01:27:46.355Z,53.44
2022-11-22T01:28:46.327Z,55.02
2022-11-22T01:29:46.323Z,54.16
2022-11-22T01:30:46.311Z,50.15
2022-11-22T01:31:47.083Z,55.75
2022-11-22T01:32:46.305Z,55.20
2022-11-22T01:33:46.338Z,51.11
2022-11-22T01:34:46.278Z,50.96
2022-11-22T01:35:46.302Z,50.84
2022-11-22T01:36:47.282Z,56.40
2022-11-22T01:37:46.261Z,58.56
2022-11-22T01:38:46.279Z,55.80
2022-11-22T01:39:46.257Z,53.01
2022-11-22T01:40:46.236Z,61.33
2022-11-22T01:41:47.156Z,61.55
2022-11-22T01:42:46.244Z,59.27
2022-11-22T01:43:46.222Z,61.04
2022-11-22T01:44:46.204Z,56.06
2022-11-22T01:45:46.192Z,57.35
2022-11-22T01:46:46.197Z,59.09
2022-11-22T01:47:46.172Z,53.33
2022-11-22T01:48:46.181Z,53.07
2022-11-22T01:49:46.176Z,56.74
2022-11-22T01:50:46.154Z,56.50
2022-11-22T01:51:46.159Z,64.07
2022-11-22T01:52:46.138Z,56.92
2022-11-22T01:53:46.129Z,57.35
2022-11-22T01:54:46.127Z,51.70
2022-11-22T01:55:46.108Z,60.09
2022-11-22T01:56:46.108Z,63.79
2022-11-22T01:57:46.099Z,50.90
2022-11-22T01:58:47.087Z,49.59
2022-11-22T01:59:46.089Z,51.07
2022-11-22T02:00:46.675Z,56.76
2022-11-22T02:01:46.066Z,48.80
2022-11-22T02:02:46.057Z,54.35
2022-11-22T02:03:46.055Z,53.87
2022-11-22T02:04:46.042Z,59.30
2022-11-22T02:05:46.059Z,58.46
2022-11-22T02:06:46.027Z,55.45
2022-11-22T02:07:46.072Z,59.69
2022-11-22T02:08:46.035Z,53.52
2022-11-22T02:09:46.004Z,49.10
2022-11-22T02:10:46.016Z,51.32
2022-11-22T02:11:45.991Z,55.62
2022-11-22T02:12:45.984Z,50.53
2022-11-22T02:13:45.969Z,52.10
2022-11-22T02:14:45.959Z,51.47
2022-11-22T02:15:46.951Z,54.48
2022-11-22T02:16:45.946Z,50.68
2022-11-22T02:17:45.940Z,50.74
2022-11-22T02:18:45.932Z,56.35
2022-11-22T02:19:45.923Z,53.83
2022-11-22T02:20:45.912Z,56.39
2022-11-22T02:21:45.914Z,48.43
2022-11-22T02:22:45.923Z,53.51
2022-11-22T02:23:45.889Z,57.37
2022-11-22T02:24:45.892Z,55.68
2022-11-22T02:25:45.876Z,49.58
2022-11-22T02:26:45.868Z,52.92
2022-11-22T02:27:45.860Z,59.44
2022-11-22T02:28:45.849Z,59.12
2022-11-22T02:29:45.853Z,58.00
2022-11-22T02:30:45.835Z,55.52
2022-11-22T02:31:45.850Z,62.13
2022-11-22T02:32:45.822Z,49.42
2022-11-22T02:33:45.815Z,63.57
2022-11-22T02:34:45.802Z,52.13
2022-11-22T02:35:45.801Z,52.42
2022-11-22T02:36:45.792Z,59.81
2022-11-22T02:37:46.661Z,52.26
2022-11-22T02:38:45.763Z,53.10
2022-11-22T02:39:45.758Z,55.07
2022-11-22T02:40:45.759Z,56.16
2022-11-22T02:41:45.746Z,52.40
2022-11-22T02:42:45.752Z,62.54
2022-11-22T02:43:45.732Z,58.77
2022-11-22T02:44:45.756Z,62.42
2022-11-22T02:45:45.725Z,61.13
2022-11-22T02:46:45.712Z,58.18
2022-11-22T02:47:45.706Z,58.77
2022-11-22T02:48:45.715Z,59.57
2022-11-22T02:49:45.691Z,54.67
2022-11-22T02:50:45.692Z,61.62
2022-11-22T02:51:45.661Z,58.66
2022-11-22T02:52:45.670Z,52.59
2022-11-22T02:53:45.668Z,55.40
2022-11-22T02:54:45.655Z,63.82
2022-11-22T02:55:45.728Z,54.64
2022-11-22T02:56:47.678Z,58.72
2022-11-22T02:57:45.623Z,63.71
2022-11-22T02:58:45.625Z,49.39
2022-11-22T02:59:45.603Z,57.69
2022-11-22T03:00:45.683Z,54.63
2022-11-22T03:01:45.601Z,59.45
2022-11-22T03:02:45.592Z,54.67
2022-11-22T03:03:45.580Z,62.23
2022-11-22T03:04:45.570Z,49.23
2022-11-22T03:05:45.562Z,51.28
2022-11-22T03:06:45.572Z,58.62
2022-11-22T03:07:45.604Z,61.35
2022-11-22T03:08:45.532Z,62.92
2022-11-22T03:09:45.534Z,51.51
2022-11-22T03:10:45.513Z,55.21
2022-11-22T03:11:45.509Z,59.22
2022-11-22T03:12:45.500Z,59.57
2022-11-22T03:13:45.521Z,58.60
2022-11-22T03:14:45.492Z,56.34
2022-11-22T03:15:45.478Z,63.88
2022-11-22T03:16:45.474Z,62.42
2022-11-22T03:17:45.458Z,57.75
2022-11-22T03:18:45.454Z,65.02
2022-11-22T03:19:45.452Z,58.29
2022-11-22T03:20:45.447Z,56.13
2022-11-22T03:21:45.440Z,60.09
2022-11-22T03:22:45.420Z,58.90
2022-11-22T03:23:45.408Z,64.07
2022-11-22T03:24:45.419Z,56.55
2022-11-22T03:25:45.390Z,57.61
2022-11-22T03:26:45.408Z,58.88
2022-11-22T03:27:45.393Z,52.14
2022-11-22T03:28:45.370Z,57.31
2022-11-22T03:29:45.351Z,56.86
2022-11-22T03:30:45.389Z,66.36
2022-11-22T03:31:45.370Z,61.27
2022-11-22T03:32:45.332Z,63.48
2022-11-22T03:33:45.331Z,63.47
2022-11-22T03:34:45.310Z,60.23
2022-11-22T03:35:45.320Z,61.54
2022-11-22T03:36:45.297Z,56.62
2022-11-22T03:37:45.308Z,63.31
2022-11-22T03:38:45.288Z,62.06
2022-11-22T03:39:45.276Z,56.00
2022-11-22T03:40:45.272Z,64.20
2022-11-22T03:41:45.268Z,61.77
2022-11-22T03:42:45.263Z,51.30
2022-11-22T03:43:45.255Z,58.85
2022-11-22T03:44:45.233Z,56.63
2022-11-22T03:45:45.249Z,61.82
2022-11-22T03:46:45.228Z,59.13
2022-11-22T03:47:45.206Z,58.33
2022-11-22T03:48:45.216Z,66.38
2022-11-22T03:49:45.201Z,58.79
2022-11-22T03:50:45.204Z,59.77
2022-11-22T03:51:45.190Z,56.99
2022-11-22T03:52:45.184Z,62.30
2022-11-22T03:53:45.166Z,62.64
2022-11-22T03:54:45.165Z,62.84
2022-11-22T03:55:45.164Z,66.30
2022-11-22T03:56:45.154Z,60.83
2022-11-22T03:57:45.147Z,58.15
2022-11-22T03:58:45.125Z,60.68
2022-11-22T03:59:45.122Z,58.98
2022-11-22T04:00:45.097Z,60.34
2022-11-22T04:01:45.144Z,60.60
2022-11-22T04:02:45.088Z,62.39
2022-11-22T04:03:45.188Z,60.13
2022-11-22T04:04:45.074Z,53.14
2022-11-22T04:05:45.079Z,58.45
2022-11-22T04:06:45.075Z,57.21
2022-11-22T04:07:45.125Z,64.01
2022-11-22T04:08:45.066Z,60.68
2022-11-22T04:09:45.038Z,62.38
2022-11-22T04:10:45.028Z,59.86
2022-11-22T04:11:45.037Z,61.48
2022-11-22T04:12:45.010Z,65.41
2022-11-22T04:13:45.000Z,58.08
2022-11-22T04:14:44.985Z,60.03
2022-11-22T04:15:44.976Z,66.89
2022-11-22T04:16:44.969Z,62.49
2022-11-22T04:17:45.753Z,61.44
2022-11-22T04:18:44.954Z,63.39
2022-11-22T04:19:44.948Z,62.85
2022-11-22T04:20:44.953Z,60.59
2022-11-22T04:21:44.928Z,64.99
2022-11-22T04:22:44.928Z,67.23
2022-11-22T04:23:44.906Z,59.77
2022-11-22T04:25:17.655Z,65.84
2022-11-22T04:25:44.892Z,67.35
2022-11-22T04:26:44.911Z,65.32
2022-11-22T04:27:45.628Z,64.32
2022-11-22T04:29:20.173Z,63.89
2022-11-22T04:29:46.748Z,62.10
2022-11-22T04:30:44.841Z,62.99
2022-11-22T04:31:45.865Z,65.32
2022-11-22T04:32:46.639Z,61.86
2022-11-22T04:33:44.828Z,66.89
2022-11-22T04:34:47.636Z,67.71
2022-11-22T04:35:44.823Z,61.95
2022-11-22T04:36:44.800Z,63.07
2022-11-22T04:37:44.804Z,63.85
2022-11-22T04:38:44.838Z,63.98
2022-11-22T04:39:44.885Z,63.93
2022-11-22T04:40:44.781Z,60.97
2022-11-22T04:41:44.760Z,63.82
2022-11-22T04:42:44.763Z,66.21
2022-11-22T04:43:44.750Z,68.22
2022-11-22T04:44:44.750Z,63.46
2022-11-22T04:45:45.643Z,63.74
2022-11-22T04:46:44.727Z,65.29
2022-11-22T04:47:49.983Z,63.39
2022-11-22T04:48:46.707Z,63.48
2022-11-22T04:49:44.712Z,65.86
2022-11-22T04:50:44.694Z,61.35
2022-11-22T04:51:44.682Z,64.58
2022-11-22T04:52:44.673Z,67.36
2022-11-22T04:53:44.664Z,64.56
2022-11-22T04:54:44.657Z,65.61
2022-11-22T04:55:44.643Z,65.16
2022-11-22T04:56:45.646Z,64.15
2022-11-22T04:57:44.626Z,66.83
2022-11-22T04:58:45.144Z,63.71
2022-11-22T04:59:44.611Z,63.75
2022-11-22T05:00:44.695Z,65.26
2022-11-22T05:01:44.597Z,64.51
2022-11-22T05:02:44.587Z,65.36
2022-11-22T05:03:44.586Z,69.24
2022-11-22T05:04:49.230Z,66.20
2022-11-22T05:05:46.573Z,63.23
2022-11-22T05:06:44.560Z,63.61
2022-11-22T05:07:44.602Z,62.86
2022-11-22T05:08:44.548Z,63.87
2022-11-22T05:09:44.535Z,63.41
2022-11-22T05:10:44.532Z,62.78
2022-11-22T05:11:44.524Z,62.25
2022-11-22T05:12:44.520Z,62.25
2022-11-22T05:13:45.154Z,66.28
2022-11-22T05:14:44.495Z,64.99
2022-11-22T05:15:44.490Z,61.40
2022-11-22T05:16:45.168Z,63.59
2022-11-22T05:17:44.478Z,63.24
2022-11-22T05:18:45.218Z,65.98
2022-11-22T05:19:49.049Z,67.38
2022-11-22T05:20:45.450Z,62.43
2022-11-22T05:21:44.444Z,65.76
2022-11-22T05:22:45.228Z,67.54
2022-11-22T05:23:44.436Z,66.58
2022-11-22T05:24:44.431Z,67.27
2022-11-22T05:25:44.418Z,66.07
2022-11-22T05:26:44.410Z,66.04
2022-11-22T05:27:44.399Z,66.25
2022-11-22T05:28:46.159Z,67.31
2022-11-22T05:29:45.192Z,68.00
2022-11-22T05:30:45.153Z,65.31
2022-11-22T05:31:49.788Z,65.15
2022-11-22T05:32:46.355Z,66.09
2022-11-22T05:33:44.351Z,66.71
2022-11-22T05:34:44.355Z,66.04
2022-11-22T05:35:44.327Z,68.86
2022-11-22T05:36:44.330Z,67.04
2022-11-22T05:37:44.314Z,67.48
2022-11-22T05:38:45.157Z,65.92
2022-11-22T05:39:44.314Z,68.93
2022-11-22T05:40:44.289Z,66.30
2022-11-22T05:41:44.284Z,66.71
2022-11-22T05:42:44.281Z,68.77
2022-11-22T05:43:44.286Z,66.26
2022-11-22T05:44:44.267Z,68.13
2022-11-22T05:45:44.252Z,68.38
2022-11-22T05:46:44.241Z,65.90
2022-11-22T05:47:44.235Z,66.83
2022-11-22T05:48:44.247Z,66.74
2022-11-22T05:49:44.233Z,66.60
2022-11-22T05:50:44.219Z,68.37
2022-11-22T05:51:44.213Z,69.45
2022-11-22T05:52:44.196Z,69.50
2022-11-22T05:53:44.189Z,71.52
2022-11-22T05:54:44.189Z,69.79
2022-11-22T05:55:46.159Z,64.39
2022-11-22T05:56:44.165Z,66.59
2022-11-22T05:57:44.156Z,65.81
2022-11-22T05:58:46.158Z,66.38
2022-11-22T05:59:44.511Z,67.16
2022-11-22T06:00:45.739Z,68.43
2022-11-22T06:03:50.988Z,70.23
2022-11-22T06:04:52.833Z,68.75
2022-11-22T06:05:50.961Z,66.30
2022-11-22T06:06:50.951Z,65.02
2022-11-22T06:07:51.013Z,66.23
2022-11-22T06:08:50.945Z,66.54
2022-11-22T06:09:53.015Z,69.78
2022-11-22T06:10:52.014Z,67.50
2022-11-22T06:11:52.998Z,70.88
2022-11-22T06:12:51.992Z,69.33
2022-11-22T06:13:52.840Z,68.61
2022-11-22T06:14:51.975Z,69.81
2022-11-22T06:15:51.982Z,67.47
2022-11-22T06:16:51.994Z,70.85
2022-11-22T06:17:53.957Z,72.75
2022-11-22T06:18:51.940Z,69.44
2022-11-22T06:19:51.940Z,68.47
2022-11-22T06:20:51.939Z,72.01
2022-11-22T06:21:52.935Z,71.43
2022-11-22T06:22:51.994Z,70.39
2022-11-22T06:23:51.910Z,69.56
2022-11-22T06:24:51.911Z,72.78
2022-11-22T06:25:53.341Z,72.12
2022-11-22T06:26:51.972Z,68.77
2022-11-22T06:27:51.880Z,69.10
2022-11-22T06:28:52.838Z,69.38
2022-11-22T06:29:51.858Z,67.29
2022-11-22T06:30:51.860Z,68.22
2022-11-22T06:31:51.843Z,69.55
2022-11-22T06:32:51.849Z,70.90
2022-11-22T06:33:51.822Z,70.19
2022-11-22T06:34:51.816Z,69.21
2022-11-22T06:35:51.806Z,70.65
2022-11-22T06:36:51.809Z,70.60
2022-11-22T06:37:59.182Z,72.77
2022-11-22T06:38:54.348Z,70.38
2022-11-22T06:39:52.345Z,69.89
2022-11-22T06:40:51.776Z,69.54
2022-11-22T06:41:52.428Z,65.87
2022-11-22T06:42:51.752Z,69.73
2022-11-22T06:43:51.774Z,68.19
2022-11-22T06:44:51.732Z,70.36
2022-11-22T06:45:51.744Z,68.40
2022-11-22T06:46:51.714Z,68.52
2022-11-22T06:47:51.703Z,67.47
2022-11-22T06:48:51.731Z,67.42
2022-11-22T06:49:51.697Z,69.94
2022-11-22T06:50:52.699Z,68.74
2022-11-22T06:51:51.680Z,67.70
2022-11-22T06:52:51.664Z,69.34
2022-11-22T06:53:51.655Z,67.12
2022-11-22T06:54:52.517Z,68.09
2022-11-22T06:55:55.574Z,68.59
2022-11-22T06:56:52.946Z,66.06
2022-11-22T06:57:51.657Z,71.67
2022-11-22T07:00:59.069Z,69.68
2022-11-22T07:02:04.556Z,69.13
2022-11-22T07:02:59.991Z,69.35
2022-11-22T07:03:59.194Z,69.26
2022-11-22T07:05:23.914Z,68.47
2022-11-22T07:05:59.939Z,67.23
2022-11-22T07:06:58.929Z,68.40
2022-11-22T07:08:05.504Z,66.23
2022-11-22T07:09:01.033Z,66.52
2022-11-22T07:10:00.014Z,65.44
2022-11-22T07:11:00.928Z,69.08
2022-11-22T07:11:59.993Z,66.04
2022-11-22T07:12:59.989Z,67.41
2022-11-22T07:14:06.556Z,68.68
2022-11-22T07:15:01.966Z,67.40
2022-11-22T07:15:59.956Z,69.64
2022-11-22T07:16:59.950Z,68.81
2022-11-22T07:18:00.958Z,68.46
2022-11-22T07:19:00.518Z,69.11
2022-11-22T07:19:59.928Z,69.02
2022-11-22T07:20:59.913Z,68.42
2022-11-22T07:22:01.867Z,68.83
2022-11-22T07:22:59.897Z,69.08
2022-11-22T07:23:59.906Z,66.46
2022-11-22T07:24:59.892Z,66.61
2022-11-22T07:25:59.868Z,69.33
2022-11-22T07:27:00.891Z,68.89
2022-11-22T07:28:00.358Z,68.20
2022-11-22T07:28:59.859Z,70.09
2022-11-22T07:29:59.846Z,71.45
2022-11-22T07:31:00.365Z,67.96
2022-11-22T07:31:59.836Z,68.15
2022-11-22T07:32:59.834Z,69.28
2022-11-22T07:33:59.825Z,69.21
2022-11-22T07:35:00.801Z,68.04
2022-11-22T07:35:59.808Z,70.07
2022-11-22T07:37:03.544Z,66.98
2022-11-22T07:38:01.778Z,67.35
2022-11-22T07:39:00.456Z,67.58
2022-11-22T07:39:59.761Z,68.64
2022-11-22T07:40:59.807Z,70.40
2022-11-22T07:41:59.749Z,66.66
2022-11-22T07:42:59.738Z,70.44
2022-11-22T07:44:00.362Z,67.97
2022-11-22T07:44:59.717Z,66.46
2022-11-22T07:45:59.722Z,69.28
2022-11-22T07:46:59.697Z,68.53
2022-11-22T07:48:00.448Z,66.80
2022-11-22T07:48:59.694Z,67.70
2022-11-22T07:49:59.697Z,65.88
2022-11-22T07:51:00.370Z,65.38
2022-11-22T07:51:59.703Z,69.01
2022-11-22T07:52:59.696Z,68.75
2022-11-22T07:53:59.671Z,68.46
2022-11-22T07:57:06.508Z,69.59
2022-11-22T07:58:06.511Z,68.53
2022-11-22T07:59:07.595Z,70.61
2022-11-22T08:00:07.590Z,69.72
2022-11-22T08:01:07.696Z,69.02
2022-11-22T08:02:07.592Z,69.11
2022-11-22T08:03:07.562Z,68.19
2022-11-22T08:04:07.588Z,70.17
2022-11-22T08:05:07.571Z,67.32
2022-11-22T08:06:07.645Z,67.07
2022-11-22T08:07:07.593Z,66.57
2022-11-22T08:08:07.539Z,68.52
2022-11-22T08:09:07.560Z,67.51
2022-11-22T08:10:07.513Z,67.92
2022-11-22T08:11:07.494Z,65.97
2022-11-22T08:12:07.494Z,66.99
2022-11-22T08:13:08.445Z,64.94
2022-11-22T08:14:07.489Z,69.08
2022-11-22T08:15:07.575Z,65.62
2022-11-22T08:16:07.493Z,66.90
2022-11-22T08:17:07.454Z,68.14
2022-11-22T08:18:07.440Z,69.22
2022-11-22T08:19:07.453Z,67.55
2022-11-22T08:20:07.482Z,71.79
2022-11-22T08:21:07.440Z,70.00
2022-11-22T08:22:08.516Z,65.56
2022-11-22T08:23:07.420Z,70.34
2022-11-22T08:24:07.446Z,69.62
2022-11-22T08:25:07.399Z,67.71
2022-11-22T08:26:07.380Z,69.14
2022-11-22T08:27:07.376Z,65.96
2022-11-22T08:28:07.400Z,68.08
2022-11-22T08:29:12.525Z,69.62
2022-11-22T08:30:09.345Z,67.82
2022-11-22T08:31:07.339Z,68.86
2022-11-22T08:32:07.355Z,68.95
2022-11-22T08:33:07.370Z,66.72
2022-11-22T08:34:07.312Z,65.78
2022-11-22T08:35:07.332Z,67.66
2022-11-22T08:36:07.303Z,68.82
2022-11-22T08:37:07.293Z,69.36
2022-11-22T08:38:07.402Z,70.12
2022-11-22T08:39:07.291Z,65.50
2022-11-22T08:40:07.273Z,68.94
2022-11-22T08:41:07.285Z,67.88
2022-11-22T08:42:07.263Z,68.38
2022-11-22T08:43:07.470Z,65.66
2022-11-22T08:44:07.241Z,67.88
2022-11-22T08:45:07.241Z,68.05
2022-11-22T08:46:07.236Z,67.87
2022-11-22T08:47:08.216Z,67.94
2022-11-22T08:48:08.466Z,67.56
2022-11-22T08:51:13.502Z,67.19
2022-11-22T08:52:13.493Z,68.40
2022-11-22T08:53:13.581Z,67.72
2022-11-22T08:54:13.474Z,68.26
2022-11-22T08:55:13.465Z,69.74
2022-11-22T08:56:15.367Z,71.49
2022-11-22T08:57:13.456Z,68.44
2022-11-22T08:58:13.441Z,69.31
2022-11-22T08:59:13.621Z,68.00
2022-11-22T09:00:13.448Z,69.06
2022-11-22T09:01:13.668Z,70.81
2022-11-22T09:02:13.421Z,67.23
2022-11-22T09:03:13.410Z,67.06
2022-11-22T09:04:13.382Z,69.23
2022-11-22T09:05:15.336Z,68.93
2022-11-22T09:08:22.724Z,68.05
2022-11-22T09:10:16.436Z,67.02
2022-11-22T09:11:14.440Z,67.67
2022-11-22T09:12:14.455Z,68.35
2022-11-22T09:13:14.933Z,64.12
2022-11-22T09:14:14.420Z,68.30
2022-11-22T09:15:17.931Z,67.91
2022-11-22T09:16:14.393Z,67.62
2022-11-22T09:17:17.741Z,65.74
2022-11-22T09:18:15.386Z,67.79
2022-11-22T09:19:15.357Z,67.49
2022-11-22T09:20:14.362Z,67.76
2022-11-22T09:21:14.353Z,68.30
2022-11-22T09:22:14.440Z,68.19
2022-11-22T09:23:14.858Z,69.31
2022-11-22T09:24:14.330Z,67.42
2022-11-22T09:25:14.412Z,67.78
2022-11-22T09:26:14.309Z,68.62
2022-11-22T09:27:14.443Z,68.28
2022-11-22T09:28:14.294Z,67.59
2022-11-22T09:29:14.294Z,67.76
2022-11-22T09:30:14.269Z,67.46
2022-11-22T09:31:14.308Z,67.77
2022-11-22T09:32:14.454Z,67.76
2022-11-22T09:33:14.255Z,67.18
2022-11-22T09:34:14.247Z,68.46
2022-11-22T09:35:14.241Z,70.13
2022-11-22T09:36:14.229Z,68.83
2022-11-22T09:37:14.243Z,69.83
2022-11-22T09:38:14.210Z,66.63
2022-11-22T09:39:14.220Z,68.31
2022-11-22T09:40:14.957Z,64.99
2022-11-22T09:41:14.285Z,69.09
2022-11-22T09:42:14.193Z,68.35
2022-11-22T09:43:14.174Z,68.43
2022-11-22T09:44:14.163Z,70.33
2022-11-22T09:45:15.985Z,67.68
2022-11-22T09:46:14.162Z,64.80
2022-11-22T09:47:14.154Z,66.55
2022-11-22T09:48:14.133Z,65.38
2022-11-22T09:49:14.131Z,65.62
2022-11-22T09:50:14.116Z,67.60
2022-11-22T09:51:14.105Z,67.23
2022-11-22T09:52:15.092Z,68.23
2022-11-22T09:53:14.086Z,69.50
2022-11-22T09:54:14.085Z,69.25
2022-11-22T09:55:17.785Z,65.97
2022-11-22T09:56:15.064Z,67.85
2022-11-22T09:57:14.221Z,65.50
2022-11-22T09:58:14.040Z,68.38
2022-11-22T09:59:14.051Z,67.31
2022-11-22T10:00:14.030Z,68.06
2022-11-22T10:01:14.081Z,67.77
2022-11-22T10:02:18.646Z,69.18
2022-11-22T10:03:16.015Z,67.70
2022-11-22T10:04:14.016Z,69.35
2022-11-22T10:05:14.005Z,66.53
2022-11-22T10:06:13.997Z,68.63
2022-11-22T10:07:14.087Z,65.32
2022-11-22T10:08:13.977Z,67.44
2022-11-22T10:09:13.962Z,66.56
2022-11-22T10:10:13.954Z,67.47
2022-11-22T10:11:13.962Z,66.68
2022-11-22T10:12:13.946Z,67.30
2022-11-22T10:13:14.024Z,66.50
2022-11-22T10:14:13.927Z,66.49
2022-11-22T10:15:13.928Z,65.36
2022-11-22T10:16:13.916Z,66.54
2022-11-22T10:17:13.900Z,66.03
2022-11-22T10:18:13.881Z,66.60
2022-11-22T10:19:14.442Z,69.57
2022-11-22T10:20:13.872Z,67.74
2022-11-22T10:21:13.871Z,69.86
2022-11-22T10:22:13.853Z,67.09
2022-11-22T10:23:13.855Z,69.47
2022-11-22T10:24:13.846Z,66.33
2022-11-22T10:25:13.842Z,69.41
2022-11-22T10:26:13.853Z,68.05
2022-11-22T10:27:13.817Z,67.30
2022-11-22T10:28:13.812Z,67.27
2022-11-22T10:29:13.907Z,67.83
2022-11-22T10:30:13.800Z,67.60
2022-11-22T10:31:14.500Z,66.24
2022-11-22T10:32:13.794Z,65.90
2022-11-22T10:33:13.778Z,66.91
2022-11-22T10:34:14.048Z,66.91
2022-11-22T10:35:13.755Z,67.97
2022-11-22T10:36:13.750Z,67.41
2022-11-22T10:37:13.747Z,69.20
2022-11-22T10:38:13.748Z,68.25
2022-11-22T10:39:13.924Z,66.51
2022-11-22T10:40:13.721Z,67.16
2022-11-22T10:41:13.704Z,69.71
2022-11-22T10:42:13.697Z,67.32
2022-11-22T10:43:14.703Z,66.17
2022-11-22T10:44:17.556Z,66.38
2022-11-22T10:45:13.669Z,66.94
2022-11-22T10:46:13.671Z,66.50
2022-11-22T10:47:13.676Z,65.95
2022-11-22T10:48:45.922Z,65.36
2022-11-22T10:49:13.646Z,65.48
2022-11-22T10:50:13.673Z,68.28
2022-11-22T10:51:13.628Z,65.93
2022-11-22T10:52:13.615Z,66.46
2022-11-22T10:53:14.616Z,67.21
2022-11-22T10:54:13.595Z,64.41
2022-11-22T10:55:13.599Z,68.45
2022-11-22T10:56:13.606Z,68.65
2022-11-22T10:57:13.575Z,69.86
2022-11-22T10:58:13.571Z,65.90
2022-11-22T10:59:13.561Z,65.95
2022-11-22T11:00:13.626Z,66.83
2022-11-22T11:01:13.642Z,68.03
2022-11-22T11:02:13.538Z,68.55
2022-11-22T11:03:13.555Z,68.97
2022-11-22T11:04:16.485Z,68.89
2022-11-22T11:05:13.525Z,68.62
2022-11-22T11:07:15.575Z,66.34
2022-11-22T11:08:39.297Z,66.90
2022-11-22T11:10:24.805Z,65.25
2022-11-22T11:11:15.501Z,66.55
2022-11-22T11:12:13.464Z,66.72
2022-11-22T11:13:13.469Z,66.97
2022-11-22T11:14:13.433Z,66.93
2022-11-22T11:15:13.430Z,67.29
2022-11-22T11:16:13.557Z,68.94
2022-11-22T11:17:13.412Z,65.85
2022-11-22T11:18:13.417Z,67.23
2022-11-22T11:19:13.392Z,68.45
2022-11-22T11:20:13.394Z,67.76
2022-11-22T11:21:13.379Z,68.36
2022-11-22T11:22:14.004Z,67.28
2022-11-22T11:23:15.273Z,66.87
2022-11-22T11:24:14.350Z,68.46
2022-11-22T11:25:13.343Z,67.02
2022-11-22T11:26:13.335Z,67.50
2022-11-22T11:27:13.338Z,69.48
2022-11-22T11:28:13.321Z,68.04
2022-11-22T11:29:13.313Z,68.11
2022-11-22T11:30:13.309Z,68.72
2022-11-22T11:31:13.304Z,66.34
2022-11-22T11:32:13.393Z,65.48
2022-11-22T11:33:13.278Z,65.11
2022-11-22T11:34:13.271Z,66.28
2022-11-22T11:35:13.276Z,67.97
2022-11-22T11:36:13.262Z,67.98
2022-11-22T11:37:13.267Z,66.92
2022-11-22T11:38:13.242Z,67.51
2022-11-22T11:39:13.326Z,68.11
2022-11-22T11:40:13.315Z,65.82
2022-11-22T11:41:13.242Z,64.94
2022-11-22T11:42:13.207Z,66.02
2022-11-22T11:43:13.218Z,65.97
2022-11-22T11:44:13.199Z,66.00
2022-11-22T11:45:13.189Z,67.05
2022-11-22T11:46:13.184Z,66.11
2022-11-22T11:47:13.181Z,65.95
2022-11-22T11:48:13.273Z,66.55
2022-11-22T11:49:13.150Z,66.11
2022-11-22T11:50:13.144Z,66.73
2022-11-22T11:51:13.147Z,68.01
2022-11-22T11:52:13.149Z,65.97
2022-11-22T11:53:13.215Z,67.51
2022-11-22T11:54:13.122Z,67.60
2022-11-22T11:55:13.107Z,69.00
2022-11-22T11:56:13.114Z,67.77
2022-11-22T11:57:13.096Z,68.56
2022-11-22T11:58:17.665Z,66.58
2022-11-22T11:59:14.101Z,68.70
2022-11-22T12:00:13.159Z,68.48
2022-11-22T12:01:14.199Z,68.26
2022-11-22T12:02:13.082Z,67.77
2022-11-22T12:03:14.054Z,70.22
2022-11-22T12:04:13.187Z,67.34
2022-11-22T12:05:13.054Z,67.56
2022-11-22T12:06:13.018Z,65.50
2022-11-22T12:07:13.044Z,66.31
2022-11-22T12:08:13.009Z,66.58
2022-11-22T12:09:12.992Z,68.51
2022-11-22T12:10:12.981Z,66.53
2022-11-22T12:11:13.504Z,68.95
2022-11-22T12:12:13.928Z,68.18
2022-11-22T12:13:12.969Z,67.35
2022-11-22T12:14:19.980Z,67.87
2022-11-22T12:15:15.241Z,66.43
2022-11-22T12:16:12.945Z,68.34
2022-11-22T12:17:12.929Z,67.69
2022-11-22T12:18:12.956Z,68.40
2022-11-22T12:19:12.921Z,68.95
2022-11-22T12:20:13.049Z,69.30
2022-11-22T12:21:12.891Z,70.14
2022-11-22T12:22:29.219Z,71.03
2022-11-22T12:23:14.883Z,65.34
2022-11-22T12:24:41.299Z,64.73
2022-11-22T12:25:31.922Z,67.65
2022-11-22T12:26:14.874Z,68.59
2022-11-22T12:27:12.863Z,67.57
2022-11-22T12:28:12.879Z,64.36
2022-11-22T12:29:14.498Z,65.97
2022-11-22T12:30:12.885Z,67.54
2022-11-22T12:31:15.319Z,67.94
2022-11-22T12:32:13.808Z,64.96
2022-11-22T12:33:12.780Z,67.77
2022-11-22T12:34:13.788Z,65.59
2022-11-22T12:35:12.795Z,68.21
2022-11-22T12:36:12.875Z,65.35
2022-11-22T12:37:12.797Z,64.78
2022-11-22T12:38:12.754Z,67.35
2022-11-22T12:39:12.742Z,67.81
2022-11-22T12:40:12.835Z,66.66
2022-11-22T12:41:12.738Z,67.03
2022-11-22T12:42:12.762Z,65.78
2022-11-22T12:43:12.714Z,68.17
2022-11-22T12:44:12.734Z,67.25
2022-11-22T12:45:12.707Z,66.89
2022-11-22T12:46:12.688Z,66.73
2022-11-22T12:47:12.673Z,66.88
2022-11-22T12:48:13.673Z,65.72
2022-11-22T12:49:12.666Z,65.86
2022-11-22T12:50:12.662Z,66.05
2022-11-22T12:51:15.545Z,65.43
2022-11-22T12:52:12.652Z,64.41
2022-11-22T12:53:12.714Z,67.99
2022-11-22T12:54:12.635Z,67.74
2022-11-22T12:55:12.631Z,68.12
2022-11-22T12:56:12.621Z,68.09
2022-11-22T12:57:12.608Z,68.37
2022-11-22T12:58:12.602Z,67.26
2022-11-22T12:59:13.456Z,68.59
2022-11-22T13:00:13.514Z,67.57
2022-11-22T13:01:14.562Z,66.45
2022-11-22T13:02:12.571Z,65.63
2022-11-22T13:03:12.560Z,67.47
2022-11-22T13:04:12.544Z,68.61
2022-11-22T13:05:12.535Z,69.41
2022-11-22T13:06:13.571Z,67.55
2022-11-22T13:07:12.745Z,67.99
2022-11-22T13:08:12.560Z,68.50